Domov               UVHVVR             MKGP            O straneh              
ZDRAVSTVENO VARSTVO RASTLIN
  MREŽA AGROMET. POSTAJ
 ► PROGNOSTIČNA OBVESTILA
AGROMETEOROLOŠKI PODATKI -
ARSO
OBVLADOVANJE TVEGANJ ZARADI
NEUGODNIH VREMENSKIH RAZMER
  ► NARAVNE NESREČE
  ► SUŠA/MOČA
  ► NAMAKANJE
  ► ŽLED (gozdarstvo)
KARTOGRAFSKI PRIKAZI
SPLETNE POVEZAVE
PROJEKTI IN PUBLIKACIJE

AGROMETEOROLOŠKA MREŽA: VREMENSKE POSTAJE IN FENOLOŠKA OPAZOVANJA

Pregled podatkov za lokacijo Komen, meteorološka postaja 42394

Pregled senzorjev na lokaciji

ID Ime Zadnja
vrednost
Datum
zadnje
spremembe
Tip
senzorja
4430 Omočenost lista (U) 0 U 25.3.2019 01:00 A730WET
4431 Padavine (mm) 0 mm 25.3.2019 00:59 Generic 0.2 mm
4429 Relativna vlaga 2 m (% RH) 49,3 % RH 25.3.2019 01:00 50YA
4428 Temperatura 2 m (°C) 8,02 °C 25.3.2019 01:00 50YA

Pregled podatkov zadnjih 24 ur

Zap.
št.
Datum in čas Komen
Omočenost
lista
Padavine Relativna
vlaga
2
m
Temperatura
2
m
1 25.3.2019 00:30
2 25.3.2019 00:00 0 0 49,3 8
3 24.3.2019 23:30 0 0 42,2 10
4 24.3.2019 23:00 0 0 39,9 10,5
5 24.3.2019 22:30 0 0 40 10,4
6 24.3.2019 22:00 0 0 40 10,3
7 24.3.2019 21:30 0 0 38,8 10,8
8 24.3.2019 21:00 0 0 44,2 9,3
9 24.3.2019 20:30 0 0 42,7 10
10 24.3.2019 20:00 0 0 34,1 12,7
11 24.3.2019 19:30 0 0 33,4 13,1
12 24.3.2019 19:00 0 0 31,3 14
13 24.3.2019 18:30 0 0 28,6 15,2
14 24.3.2019 18:00 0 0 24,9 17
15 24.3.2019 17:30 0 0 22,8 17,9
16 24.3.2019 17:00 0 0 22,1 18,3
17 24.3.2019 16:30 0 0 22,2 18,8
18 24.3.2019 16:00 0 0 21,9 19
19 24.3.2019 15:30 0 0 21,1 19,1
20 24.3.2019 15:00 0 0 21,4 19,4
21 24.3.2019 14:30 0 0 21,1 19,6
22 24.3.2019 14:00 0 0 19,5 19,7
23 24.3.2019 13:30 0 0 20,5 20
24 24.3.2019 13:00 0 0 20,8 19,9
25 24.3.2019 12:30 0 0 21,1 19,8
26 24.3.2019 12:00 0 0 20,8 20,3
27 24.3.2019 11:30 0 0 21,1 21,1
28 24.3.2019 11:00 0 0 20,8 21,4
29 24.3.2019 10:30 0 0 22,2 21
30 24.3.2019 10:00 0 0 23,6 20,4
31 24.3.2019 09:30 0 0 26 19,3
32 24.3.2019 09:00 0 0 29,8 18,3
33 24.3.2019 08:30 0 0 32,6 16,3
34 24.3.2019 08:00 0 0 35,6 14,3
35 24.3.2019 07:30 0 0 38,7 12,6
36 24.3.2019 07:00 0 0 41,3 11,2
37 24.3.2019 06:30 0 0 41,9 10,8
38 24.3.2019 06:00 0 0 42,3 10,7
39 24.3.2019 05:30 0 0 39,6 11,6
40 24.3.2019 05:00 0 0 36,8 12,7
41 24.3.2019 04:30 0 0 36,7 12,8
42 24.3.2019 04:00 0 0 35,2 13,4
43 24.3.2019 03:30 0 0 33,6 14,1
44 24.3.2019 03:00 0 0 33,2 14,2
45 24.3.2019 02:30 0 0 32,7 14,4
46 24.3.2019 02:00 0 0 33,2 14,1
47 24.3.2019 01:30 0 0 33,4 13,6
48 24.3.2019 01:00 0 0 32,2 13,9
© 2011 Ministrstvo za kmetijstvo, gozdarstvo in prehrano. Vse pravice pridržane.